sensor_id;sensor_type;location;lat;lon;timestamp;pressure;altitude;pressure_sealevel;temperature;humidity
9261;BME280;4667;42.726;23.252;2022-12-29T00:01:22;96152.81;;;6.89;nan
9261;BME280;4667;42.726;23.252;2022-12-29T00:03:49;96138.63;;;7.05;nan
9261;BME280;4667;42.726;23.252;2022-12-29T00:06:17;96145.78;;;7.13;nan
9261;BME280;4667;42.726;23.252;2022-12-29T00:08:44;96143.56;;;7.15;nan
9261;BME280;4667;42.726;23.252;2022-12-29T00:11:12;96137.38;;;7.14;nan
9261;BME280;4667;42.726;23.252;2022-12-29T00:13:39;96138.38;;;7.10;nan
9261;BME280;4667;42.726;23.252;2022-12-29T00:16:24;96137.59;;;7.09;nan
9261;BME280;4667;42.726;23.252;2022-12-29T00:18:51;96148.03;;;7.11;nan
9261;BME280;4667;42.726;23.252;2022-12-29T00:21:20;96153.88;;;7.13;nan
9261;BME280;4667;42.726;23.252;2022-12-29T00:24:05;96164.13;;;7.07;nan
9261;BME280;4667;42.726;23.252;2022-12-29T00:26:54;96160.97;;;7.05;nan
9261;BME280;4667;42.726;23.252;2022-12-29T00:29:40;96163.91;;;7.00;nan
9261;BME280;4667;42.726;23.252;2022-12-29T00:32:24;96167.63;;;6.95;nan
9261;BME280;4667;42.726;23.252;2022-12-29T00:35:10;96171.66;;;6.89;nan
9261;BME280;4667;42.726;23.252;2022-12-29T00:37:40;96172.81;;;6.76;nan
9261;BME280;4667;42.726;23.252;2022-12-29T00:40:25;96176.31;;;6.65;nan
9261;BME280;4667;42.726;23.252;2022-12-29T00:43:10;96180.78;;;6.61;nan
9261;BME280;4667;42.726;23.252;2022-12-29T00:45:54;96180.78;;;6.61;nan
9261;BME280;4667;42.726;23.252;2022-12-29T00:48:20;96177.19;;;6.69;nan
9261;BME280;4667;42.726;23.252;2022-12-29T00:51:01;96176.63;;;6.63;nan
9261;BME280;4667;42.726;23.252;2022-12-29T00:53:29;96183.59;;;6.52;nan
9261;BME280;4667;42.726;23.252;2022-12-29T00:55:56;96187.94;;;6.44;nan
9261;BME280;4667;42.726;23.252;2022-12-29T00:58:22;96182.34;;;6.62;nan
9261;BME280;4667;42.726;23.252;2022-12-29T01:00:49;96180.91;;;6.52;nan
9261;BME280;4667;42.726;23.252;2022-12-29T01:03:16;96178.44;;;6.59;nan
9261;BME280;4667;42.726;23.252;2022-12-29T01:05:42;96168.69;;;6.67;nan
9261;BME280;4667;42.726;23.252;2022-12-29T01:08:09;96172.03;;;6.64;nan
9261;BME280;4667;42.726;23.252;2022-12-29T01:10:37;96169.78;;;6.66;nan
9261;BME280;4667;42.726;23.252;2022-12-29T01:13:03;96171.78;;;6.69;nan
9261;BME280;4667;42.726;23.252;2022-12-29T01:15:30;96172.59;;;6.69;nan
9261;BME280;4667;42.726;23.252;2022-12-29T01:17:56;96161.59;;;6.62;nan
9261;BME280;4667;42.726;23.252;2022-12-29T01:20:23;96161.25;;;6.64;nan
9261;BME280;4667;42.726;23.252;2022-12-29T01:22:50;96161.94;;;6.73;nan
9261;BME280;4667;42.726;23.252;2022-12-29T01:25:17;96156.75;;;6.68;nan
9261;BME280;4667;42.726;23.252;2022-12-29T01:27:45;96159.03;;;6.66;nan
9261;BME280;4667;42.726;23.252;2022-12-29T01:30:12;96152.53;;;6.67;nan
9261;BME280;4667;42.726;23.252;2022-12-29T01:32:39;96155.88;;;6.64;nan
9261;BME280;4667;42.726;23.252;2022-12-29T01:35:06;96154.44;;;6.66;nan
9261;BME280;4667;42.726;23.252;2022-12-29T01:37:33;96144.31;;;6.63;nan
9261;BME280;4667;42.726;23.252;2022-12-29T01:40:00;96138.50;;;6.61;nan
9261;BME280;4667;42.726;23.252;2022-12-29T01:42:26;96136.81;;;6.69;nan
9261;BME280;4667;42.726;23.252;2022-12-29T01:44:56;96132.09;;;6.66;nan
9261;BME280;4667;42.726;23.252;2022-12-29T01:47:31;96135.03;;;6.61;nan
9261;BME280;4667;42.726;23.252;2022-12-29T01:50:03;96134.00;;;6.65;nan
9261;BME280;4667;42.726;23.252;2022-12-29T01:52:33;96134.81;;;6.66;nan
9261;BME280;4667;42.726;23.252;2022-12-29T01:55:02;96139.28;;;6.62;nan
9261;BME280;4667;42.726;23.252;2022-12-29T01:57:32;96129.66;;;6.61;nan
9261;BME280;4667;42.726;23.252;2022-12-29T02:00:07;96133.47;;;6.35;nan
9261;BME280;4667;42.726;23.252;2022-12-29T02:02:35;96131.44;;;6.56;nan
9261;BME280;4667;42.726;23.252;2022-12-29T02:05:07;96126.41;;;6.55;nan
9261;BME280;4667;42.726;23.252;2022-12-29T02:07:35;96124.94;;;6.57;nan
9261;BME280;4667;42.726;23.252;2022-12-29T02:10:03;96129.09;;;6.55;nan
9261;BME280;4667;42.726;23.252;2022-12-29T02:12:30;96124.84;;;6.54;nan
9261;BME280;4667;42.726;23.252;2022-12-29T02:15:02;96125.50;;;6.51;nan
9261;BME280;4667;42.726;23.252;2022-12-29T02:17:41;96124.50;;;6.43;nan
9261;BME280;4667;42.726;23.252;2022-12-29T02:20:49;96122.03;;;6.38;nan
9261;BME280;4667;42.726;23.252;2022-12-29T02:23:52;96121.69;;;6.40;nan
9261;BME280;4667;42.726;23.252;2022-12-29T02:26:39;96122.72;;;6.35;nan
9261;BME280;4667;42.726;23.252;2022-12-29T02:29:40;96118.56;;;6.38;nan
9261;BME280;4667;42.726;23.252;2022-12-29T02:32:15;96119.91;;;6.32;nan
9261;BME280;4667;42.726;23.252;2022-12-29T02:34:48;96122.94;;;6.30;nan
9261;BME280;4667;42.726;23.252;2022-12-29T02:37:22;96123.03;;;6.34;nan
9261;BME280;4667;42.726;23.252;2022-12-29T02:39:57;96123.03;;;6.34;nan
9261;BME280;4667;42.726;23.252;2022-12-29T02:42:32;96130.34;;;6.33;nan
9261;BME280;4667;42.726;23.252;2022-12-29T02:45:04;96120.91;;;6.39;nan
9261;BME280;4667;42.726;23.252;2022-12-29T02:47:40;96120.13;;;6.39;nan
9261;BME280;4667;42.726;23.252;2022-12-29T02:50:14;96120.25;;;6.42;nan
9261;BME280;4667;42.726;23.252;2022-12-29T02:52:48;96120.69;;;6.44;nan
9261;BME280;4667;42.726;23.252;2022-12-29T02:55:17;96113.41;;;6.45;nan
9261;BME280;4667;42.726;23.252;2022-12-29T02:57:42;96116.09;;;6.45;nan
9261;BME280;4667;42.726;23.252;2022-12-29T03:00:12;96114.19;;;6.45;nan
9261;BME280;4667;42.726;23.252;2022-12-29T03:03:06;96106.56;;;6.47;nan
9261;BME280;4667;42.726;23.252;2022-12-29T03:05:58;96105.22;;;6.41;nan
9261;BME280;4667;42.726;23.252;2022-12-29T03:08:33;96109.25;;;6.35;nan
9261;BME280;4667;42.726;23.252;2022-12-29T03:11:06;96103.44;;;6.33;nan
9261;BME280;4667;42.726;23.252;2022-12-29T03:13:56;96101.19;;;6.35;nan
9261;BME280;4667;42.726;23.252;2022-12-29T03:16:45;96093.34;;;6.30;nan
9261;BME280;4667;42.726;23.252;2022-12-29T03:19:20;96093.00;;;6.32;nan
9261;BME280;4667;42.726;23.252;2022-12-29T03:21:53;96091.47;;;6.19;nan
9261;BME280;4667;42.726;23.252;2022-12-29T03:24:40;96092.66;;;6.21;nan
9261;BME280;4667;42.726;23.252;2022-12-29T03:27:11;96094.47;;;6.17;nan
9261;BME280;4667;42.726;23.252;2022-12-29T03:29:44;96097.50;;;6.15;nan
9261;BME280;4667;42.726;23.252;2022-12-29T03:32:12;96097.06;;;6.13;nan
9261;BME280;4667;42.726;23.252;2022-12-29T03:34:41;96102.78;;;6.00;nan
9261;BME280;4667;42.726;23.252;2022-12-29T03:37:11;96094.16;;;5.94;nan
9261;BME280;4667;42.726;23.252;2022-12-29T03:39:39;96097.63;;;5.95;nan
9261;BME280;4667;42.726;23.252;2022-12-29T03:42:10;96097.22;;;5.84;nan
9261;BME280;4667;42.726;23.252;2022-12-29T03:44:39;96103.38;;;5.85;nan
9261;BME280;4667;42.726;23.252;2022-12-29T03:47:07;96107.97;;;5.84;nan
9261;BME280;4667;42.726;23.252;2022-12-29T03:49:34;96114.69;;;5.78;nan
9261;BME280;4667;42.726;23.252;2022-12-29T03:52:02;96114.13;;;5.85;nan
9261;BME280;4667;42.726;23.252;2022-12-29T03:54:30;96119.63;;;5.76;nan
9261;BME280;4667;42.726;23.252;2022-12-29T03:56:57;96121.97;;;5.65;nan
9261;BME280;4667;42.726;23.252;2022-12-29T03:59:24;96126.78;;;5.72;nan
9261;BME280;4667;42.726;23.252;2022-12-29T04:01:50;96121.50;;;5.63;nan
9261;BME280;4667;42.726;23.252;2022-12-29T04:04:17;96131.78;;;5.61;nan
9261;BME280;4667;42.726;23.252;2022-12-29T04:06:44;96132.53;;;5.50;nan
9261;BME280;4667;42.726;23.252;2022-12-29T04:09:12;96123.16;;;5.56;nan
9261;BME280;4667;42.726;23.252;2022-12-29T04:11:39;96124.69;;;5.45;nan
9261;BME280;4667;42.726;23.252;2022-12-29T04:14:05;96115.63;;;5.49;nan
9261;BME280;4667;42.726;23.252;2022-12-29T04:16:32;96123.47;;;5.42;nan
9261;BME280;4667;42.726;23.252;2022-12-29T04:19:00;96124.09;;;5.27;nan
9261;BME280;4667;42.726;23.252;2022-12-29T04:21:27;96128.88;;;5.21;nan
9261;BME280;4667;42.726;23.252;2022-12-29T04:23:54;96118.81;;;5.30;nan
9261;BME280;4667;42.726;23.252;2022-12-29T04:26:22;96126.13;;;5.30;nan
9261;BME280;4667;42.726;23.252;2022-12-29T04:28:49;96129.66;;;5.22;nan
9261;BME280;4667;42.726;23.252;2022-12-29T04:31:15;96131.81;;;5.28;nan
9261;BME280;4667;42.726;23.252;2022-12-29T04:33:42;96135.16;;;5.25;nan
9261;BME280;4667;42.726;23.252;2022-12-29T04:36:09;96138.63;;;5.26;nan
9261;BME280;4667;42.726;23.252;2022-12-29T04:38:35;96135.94;;;5.26;nan
9261;BME280;4667;42.726;23.252;2022-12-29T04:41:02;96141.97;;;5.23;nan
9261;BME280;4667;42.726;23.252;2022-12-29T04:43:30;96142.63;;;5.20;nan
9261;BME280;4667;42.726;23.252;2022-12-29T04:45:57;96138.63;;;5.26;nan
9261;BME280;4667;42.726;23.252;2022-12-29T04:48:24;96145.09;;;5.25;nan
9261;BME280;4667;42.726;23.252;2022-12-29T04:50:50;96144.66;;;5.23;nan
9261;BME280;4667;42.726;23.252;2022-12-29T04:53:18;96151.47;;;5.20;nan
9261;BME280;4667;42.726;23.252;2022-12-29T04:55:48;96153.75;;;5.30;nan
9261;BME280;4667;42.726;23.252;2022-12-29T04:58:15;96156.25;;;5.15;nan
9261;BME280;4667;42.726;23.252;2022-12-29T05:00:43;96161.78;;;5.18;nan
9261;BME280;4667;42.726;23.252;2022-12-29T05:03:10;96163.06;;;5.33;nan
9261;BME280;4667;42.726;23.252;2022-12-29T05:05:37;96158.59;;;5.37;nan
9261;BME280;4667;42.726;23.252;2022-12-29T05:08:04;96166.41;;;5.30;nan
9261;BME280;4667;42.726;23.252;2022-12-29T05:10:31;96164.75;;;5.38;nan
9261;BME280;4667;42.726;23.252;2022-12-29T05:12:58;96165.56;;;5.50;nan
9261;BME280;4667;42.726;23.252;2022-12-29T05:15:25;96166.03;;;5.52;nan
9261;BME280;4667;42.726;23.252;2022-12-29T05:17:53;96161.09;;;5.54;nan
9261;BME280;4667;42.726;23.252;2022-12-29T05:20:20;96162.28;;;5.65;nan
9261;BME280;4667;42.726;23.252;2022-12-29T05:22:46;96164.75;;;5.70;nan
9261;BME280;4667;42.726;23.252;2022-12-29T05:25:13;96153.78;;;5.75;nan
9261;BME280;4667;42.726;23.252;2022-12-29T05:27:40;96158.91;;;5.68;nan
9261;BME280;4667;42.726;23.252;2022-12-29T05:30:07;96163.53;;;5.80;nan
9261;BME280;4667;42.726;23.252;2022-12-29T05:32:34;96155.53;;;5.92;nan
9261;BME280;4667;42.726;23.252;2022-12-29T05:35:03;96163.22;;;5.82;nan
9261;BME280;4667;42.726;23.252;2022-12-29T05:37:30;96163.25;;;5.94;nan
9261;BME280;4667;42.726;23.252;2022-12-29T05:39:56;96161.03;;;5.96;nan
9261;BME280;4667;42.726;23.252;2022-12-29T05:42:24;96165.91;;;5.82;nan
9261;BME280;4667;42.726;23.252;2022-12-29T05:44:51;96168.13;;;5.80;nan
9261;BME280;4667;42.726;23.252;2022-12-29T05:47:19;96163.81;;;5.87;nan
9261;BME280;4667;42.726;23.252;2022-12-29T05:49:46;96165.69;;;5.87;nan
9261;BME280;4667;42.726;23.252;2022-12-29T05:52:14;96164.44;;;5.84;nan
9261;BME280;4667;42.726;23.252;2022-12-29T05:54:40;96173.72;;;5.74;nan
9261;BME280;4667;42.726;23.252;2022-12-29T05:57:09;96171.28;;;5.82;nan
9261;BME280;4667;42.726;23.252;2022-12-29T05:59:36;96174.06;;;5.85;nan
9261;BME280;4667;42.726;23.252;2022-12-29T06:02:02;96174.56;;;5.87;nan
9261;BME280;4667;42.726;23.252;2022-12-29T06:04:30;96178.50;;;5.90;nan
9261;BME280;4667;42.726;23.252;2022-12-29T06:06:57;96175.28;;;5.75;nan
9261;BME280;4667;42.726;23.252;2022-12-29T06:09:26;96177.13;;;5.84;nan
9261;BME280;4667;42.726;23.252;2022-12-29T06:11:52;96185.25;;;5.96;nan
9261;BME280;4667;42.726;23.252;2022-12-29T06:14:19;96188.47;;;5.89;nan
9261;BME280;4667;42.726;23.252;2022-12-29T06:16:46;96182.53;;;5.96;nan
9261;BME280;4667;42.726;23.252;2022-12-29T06:19:13;96187.41;;;5.82;nan
9261;BME280;4667;42.726;23.252;2022-12-29T06:21:40;96181.81;;;5.87;nan
9261;BME280;4667;42.726;23.252;2022-12-29T06:24:06;96189.25;;;5.90;nan
9261;BME280;4667;42.726;23.252;2022-12-29T06:26:34;96184.09;;;5.97;nan
9261;BME280;4667;42.726;23.252;2022-12-29T06:29:02;96184.00;;;5.93;nan
9261;BME280;4667;42.726;23.252;2022-12-29T06:31:29;96188.47;;;5.89;nan
9261;BME280;4667;42.726;23.252;2022-12-29T06:33:56;96193.94;;;5.93;nan
9261;BME280;4667;42.726;23.252;2022-12-29T06:36:22;96194.00;;;5.84;nan
9261;BME280;4667;42.726;23.252;2022-12-29T06:38:49;96191.72;;;5.95;nan
9261;BME280;4667;42.726;23.252;2022-12-29T06:41:18;96189.38;;;6.05;nan
9261;BME280;4667;42.726;23.252;2022-12-29T06:43:46;96188.13;;;6.03;nan
9261;BME280;4667;42.726;23.252;2022-12-29T06:46:13;96195.13;;;6.16;nan
9261;BME280;4667;42.726;23.252;2022-12-29T06:48:40;96196.44;;;5.98;nan
9261;BME280;4667;42.726;23.252;2022-12-29T06:51:07;96196.09;;;5.99;nan
9261;BME280;4667;42.726;23.252;2022-12-29T06:53:34;96199.44;;;5.96;nan
9261;BME280;4667;42.726;23.252;2022-12-29T06:56:01;96197.47;;;5.85;nan
9261;BME280;4667;42.726;23.252;2022-12-29T06:58:27;96199.47;;;6.08;nan
9261;BME280;4667;42.726;23.252;2022-12-29T07:00:55;96206.31;;;6.06;nan
9261;BME280;4667;42.726;23.252;2022-12-29T07:03:23;96197.34;;;6.14;nan
9261;BME280;4667;42.726;23.252;2022-12-29T07:05:50;96207.41;;;5.93;nan
9261;BME280;4667;42.726;23.252;2022-12-29T07:08:17;96205.75;;;6.00;nan
9261;BME280;4667;42.726;23.252;2022-12-29T07:10:44;96204.66;;;6.13;nan
9261;BME280;4667;42.726;23.252;2022-12-29T07:13:10;96202.38;;;6.03;nan
9261;BME280;4667;42.726;23.252;2022-12-29T07:15:37;96202.25;;;5.88;nan
9261;BME280;4667;42.726;23.252;2022-12-29T07:18:05;96204.59;;;5.89;nan
9261;BME280;4667;42.726;23.252;2022-12-29T07:20:32;96200.91;;;5.73;nan
9261;BME280;4667;42.726;23.252;2022-12-29T07:22:59;96202.25;;;5.88;nan
9261;BME280;4667;42.726;23.252;2022-12-29T07:25:25;96194.16;;;5.88;nan
9261;BME280;4667;42.726;23.252;2022-12-29T07:27:53;96203.03;;;5.88;nan
9261;BME280;4667;42.726;23.252;2022-12-29T07:30:20;96200.22;;;5.97;nan
9261;BME280;4667;42.726;23.252;2022-12-29T07:32:46;96196.66;;;6.05;nan
9261;BME280;4667;42.726;23.252;2022-12-29T07:35:15;96200.59;;;6.07;nan
9261;BME280;4667;42.726;23.252;2022-12-29T07:37:41;96199.94;;;6.10;nan
9261;BME280;4667;42.726;23.252;2022-12-29T07:40:09;96211.28;;;6.28;nan
9261;BME280;4667;42.726;23.252;2022-12-29T07:42:36;96207.00;;;6.27;nan
9261;BME280;4667;42.726;23.252;2022-12-29T07:45:04;96201.41;;;6.32;nan
9261;BME280;4667;42.726;23.252;2022-12-29T07:47:31;96201.88;;;6.46;nan
9261;BME280;4667;42.726;23.252;2022-12-29T07:49:57;96203.75;;;6.34;nan
9261;BME280;4667;42.726;23.252;2022-12-29T07:52:25;96213.50;;;6.26;nan
9261;BME280;4667;42.726;23.252;2022-12-29T07:54:52;96216.44;;;6.33;nan
9261;BME280;4667;42.726;23.252;2022-12-29T07:57:19;96215.78;;;6.48;nan
9261;BME280;4667;42.726;23.252;2022-12-29T07:59:46;96218.25;;;6.53;nan
9261;BME280;4667;42.726;23.252;2022-12-29T08:02:12;96212.63;;;6.71;nan
9261;BME280;4667;42.726;23.252;2022-12-29T08:04:39;96209.94;;;6.83;nan
9261;BME280;4667;42.726;23.252;2022-12-29T08:07:06;96218.91;;;6.87;nan
9261;BME280;4667;42.726;23.252;2022-12-29T08:09:34;96218.66;;;6.92;nan
9261;BME280;4667;42.726;23.252;2022-12-29T08:12:01;96221.28;;;6.76;nan
9261;BME280;4667;42.726;23.252;2022-12-29T08:14:28;96215.66;;;6.69;nan
9261;BME280;4667;42.726;23.252;2022-12-29T08:16:55;96203.19;;;6.89;nan
9261;BME280;4667;42.726;23.252;2022-12-29T08:19:21;96210.59;;;6.92;nan
9261;BME280;4667;42.726;23.252;2022-12-29T08:21:48;96207.84;;;7.16;nan
9261;BME280;4667;42.726;23.252;2022-12-29T08:24:15;96204.56;;;7.35;nan
9261;BME280;4667;42.726;23.252;2022-12-29T08:26:43;96199.00;;;7.56;nan
9261;BME280;4667;42.726;23.252;2022-12-29T08:29:10;96206.72;;;7.57;nan
9261;BME280;4667;42.726;23.252;2022-12-29T08:31:37;96203.06;;;7.50;nan
9261;BME280;4667;42.726;23.252;2022-12-29T08:34:04;96204.81;;;7.58;nan
9261;BME280;4667;42.726;23.252;2022-12-29T08:36:31;96210.66;;;7.60;nan
9261;BME280;4667;42.726;23.252;2022-12-29T08:38:58;96209.44;;;7.45;nan
9261;BME280;4667;42.726;23.252;2022-12-29T08:41:27;96212.72;;;7.51;nan
9261;BME280;4667;42.726;23.252;2022-12-29T08:43:57;96205.44;;;7.39;nan
9261;BME280;4667;42.726;23.252;2022-12-29T08:46:24;96207.13;;;7.44;nan
9261;BME280;4667;42.726;23.252;2022-12-29T08:48:51;96209.22;;;7.78;nan
9261;BME280;4667;42.726;23.252;2022-12-29T08:51:18;96206.03;;;7.60;nan
9261;BME280;4667;42.726;23.252;2022-12-29T08:53:44;96204.44;;;7.87;nan
9261;BME280;4667;42.726;23.252;2022-12-29T08:56:11;96207.84;;;8.28;nan
9261;BME280;4667;42.726;23.252;2022-12-29T08:58:38;96204.06;;;8.16;nan
9261;BME280;4667;42.726;23.252;2022-12-29T09:01:10;96199.28;;;8.10;nan
9261;BME280;4667;42.726;23.252;2022-12-29T09:03:37;96193.88;;;8.10;nan
9261;BME280;4667;42.726;23.252;2022-12-29T09:06:05;96184.53;;;8.51;nan
9261;BME280;4667;42.726;23.252;2022-12-29T09:08:32;96195.81;;;8.25;nan
9261;BME280;4667;42.726;23.252;2022-12-29T09:11:06;96186.41;;;8.35;nan
9261;BME280;4667;42.726;23.252;2022-12-29T09:13:33;96181.44;;;8.52;nan
9261;BME280;4667;42.726;23.252;2022-12-29T09:16:01;96176.22;;;8.59;nan
9261;BME280;4667;42.726;23.252;2022-12-29T09:18:29;96182.88;;;8.97;nan
9261;BME280;4667;42.726;23.252;2022-12-29T09:21:00;96176.00;;;8.84;nan
9261;BME280;4667;42.726;23.252;2022-12-29T09:23:28;96179.53;;;9.04;nan
9261;BME280;4667;42.726;23.252;2022-12-29T09:25:56;96171.84;;;9.40;nan
9261;BME280;4667;42.726;23.252;2022-12-29T09:28:24;96171.53;;;9.65;nan
9261;BME280;4667;42.726;23.252;2022-12-29T09:30:51;96164.47;;;9.79;nan
9261;BME280;4667;42.726;23.252;2022-12-29T09:33:17;96168.56;;;9.93;nan
9261;BME280;4667;42.726;23.252;2022-12-29T09:35:51;96152.88;;;10.02;nan
9261;BME280;4667;42.726;23.252;2022-12-29T09:38:18;96158.13;;;10.14;nan
9261;BME280;4667;42.726;23.252;2022-12-29T09:40:49;96165.88;;;9.93;nan
9261;BME280;4667;42.726;23.252;2022-12-29T09:43:27;96142.59;;;10.11;nan
9261;BME280;4667;42.726;23.252;2022-12-29T09:46:05;96150.41;;;10.35;nan
9261;BME280;4667;42.726;23.252;2022-12-29T09:48:37;96155.75;;;10.54;nan
9261;BME280;4667;42.726;23.252;2022-12-29T09:51:11;96147.69;;;10.61;nan
9261;BME280;4667;42.726;23.252;2022-12-29T09:53:42;96132.47;;;10.27;nan
9261;BME280;4667;42.726;23.252;2022-12-29T09:56:16;96138.41;;;10.36;nan
9261;BME280;4667;42.726;23.252;2022-12-29T09:58:49;96130.56;;;10.54;nan
9261;BME280;4667;42.726;23.252;2022-12-29T10:01:23;96132.47;;;10.80;nan
9261;BME280;4667;42.726;23.252;2022-12-29T10:03:55;96128.34;;;10.59;nan
9261;BME280;4667;42.726;23.252;2022-12-29T10:06:26;96125.50;;;10.79;nan
9261;BME280;4667;42.726;23.252;2022-12-29T10:09:02;96121.72;;;10.83;nan
9261;BME280;4667;42.726;23.252;2022-12-29T10:11:46;96119.50;;;10.92;nan
9261;BME280;4667;42.726;23.252;2022-12-29T10:14:33;96116.19;;;11.06;nan
9261;BME280;4667;42.726;23.252;2022-12-29T10:17:12;96118.03;;;10.98;nan
9261;BME280;4667;42.726;23.252;2022-12-29T10:20:01;96114.31;;;10.54;nan
9261;BME280;4667;42.726;23.252;2022-12-29T10:22:47;96118.91;;;10.04;nan
9261;BME280;4667;42.726;23.252;2022-12-29T10:25:25;96106.72;;;9.72;nan
9261;BME280;4667;42.726;23.252;2022-12-29T10:27:53;96109.56;;;9.79;nan
9261;BME280;4667;42.726;23.252;2022-12-29T10:30:23;96115.09;;;9.63;nan
9261;BME280;4667;42.726;23.252;2022-12-29T10:32:52;96105.06;;;9.64;nan
9261;BME280;4667;42.726;23.252;2022-12-29T10:35:22;96100.44;;;9.87;nan
9261;BME280;4667;42.726;23.252;2022-12-29T10:37:56;96099.16;;;10.04;nan
9261;BME280;4667;42.726;23.252;2022-12-29T10:40:27;96098.88;;;10.09;nan
9261;BME280;4667;42.726;23.252;2022-12-29T10:42:57;96094.91;;;10.03;nan
9261;BME280;4667;42.726;23.252;2022-12-29T10:45:29;96090.44;;;10.14;nan
9261;BME280;4667;42.726;23.252;2022-12-29T10:48:01;96086.06;;;10.55;nan
9261;BME280;4667;42.726;23.252;2022-12-29T10:50:29;96083.16;;;10.97;nan
9261;BME280;4667;42.726;23.252;2022-12-29T10:52:59;96078.56;;;11.01;nan
9261;BME280;4667;42.726;23.252;2022-12-29T10:55:30;96073.69;;;11.47;nan
9261;BME280;4667;42.726;23.252;2022-12-29T10:58:00;96067.63;;;11.24;nan
9261;BME280;4667;42.726;23.252;2022-12-29T11:00:30;96064.88;;;11.57;nan
9261;BME280;4667;42.726;23.252;2022-12-29T11:03:36;96058.06;;;12.18;nan
9261;BME280;4667;42.726;23.252;2022-12-29T11:06:09;96055.13;;;13.09;nan
9261;BME280;4667;42.726;23.252;2022-12-29T11:08:42;96054.22;;;13.92;nan
9261;BME280;4667;42.726;23.252;2022-12-29T11:11:11;96053.81;;;14.32;nan
9261;BME280;4667;42.726;23.252;2022-12-29T11:13:47;96043.31;;;14.31;nan
9261;BME280;4667;42.726;23.252;2022-12-29T11:16:15;96043.69;;;14.54;nan
9261;BME280;4667;42.726;23.252;2022-12-29T11:18:53;96046.06;;;14.52;nan
9261;BME280;4667;42.726;23.252;2022-12-29T11:21:30;96042.50;;;14.69;nan
9261;BME280;4667;42.726;23.252;2022-12-29T11:24:01;96047.16;;;14.73;nan
9261;BME280;4667;42.726;23.252;2022-12-29T11:26:28;96034.66;;;14.93;nan
9261;BME280;4667;42.726;23.252;2022-12-29T11:29:36;96044.44;;;14.83;nan
9261;BME280;4667;42.726;23.252;2022-12-29T11:32:25;96040.09;;;14.93;nan
9261;BME280;4667;42.726;23.252;2022-12-29T11:34:52;96043.22;;;14.91;nan
9261;BME280;4667;42.726;23.252;2022-12-29T11:37:25;96039.34;;;14.78;nan
9261;BME280;4667;42.726;23.252;2022-12-29T11:39:57;96037.78;;;14.84;nan
9261;BME280;4667;42.726;23.252;2022-12-29T11:42:33;96035.16;;;14.52;nan
9261;BME280;4667;42.726;23.252;2022-12-29T11:45:04;96035.13;;;14.49;nan
9261;BME280;4667;42.726;23.252;2022-12-29T11:47:32;96030.47;;;14.14;nan
9261;BME280;4667;42.726;23.252;2022-12-29T11:50:02;96026.94;;;13.57;nan
9261;BME280;4667;42.726;23.252;2022-12-29T11:52:33;96024.59;;;13.76;nan
9261;BME280;4667;42.726;23.252;2022-12-29T11:55:05;96030.81;;;13.56;nan
9261;BME280;4667;42.726;23.252;2022-12-29T11:57:34;96025.31;;;13.41;nan
9261;BME280;4667;42.726;23.252;2022-12-29T12:00:14;96018.97;;;12.98;nan
9261;BME280;4667;42.726;23.252;2022-12-29T12:02:45;96017.66;;;12.67;nan
9261;BME280;4667;42.726;23.252;2022-12-29T12:05:22;96016.72;;;12.46;nan
9261;BME280;4667;42.726;23.252;2022-12-29T12:07:56;96008.88;;;12.26;nan
9261;BME280;4667;42.726;23.252;2022-12-29T12:10:29;96006.19;;;12.34;nan
9261;BME280;4667;42.726;23.252;2022-12-29T12:13:03;96009.00;;;12.48;nan
9261;BME280;4667;42.726;23.252;2022-12-29T12:15:36;96003.47;;;12.34;nan
9261;BME280;4667;42.726;23.252;2022-12-29T12:18:09;95999.94;;;12.30;nan
9261;BME280;4667;42.726;23.252;2022-12-29T12:20:44;95999.09;;;12.18;nan
9261;BME280;4667;42.726;23.252;2022-12-29T12:23:32;96006.06;;;12.12;nan
9261;BME280;4667;42.726;23.252;2022-12-29T12:26:10;95994.47;;;12.22;nan
9261;BME280;4667;42.726;23.252;2022-12-29T12:28:45;95998.34;;;12.21;nan
9261;BME280;4667;42.726;23.252;2022-12-29T12:31:18;95999.09;;;12.18;nan
9261;BME280;4667;42.726;23.252;2022-12-29T12:34:01;95990.53;;;12.09;nan
9261;BME280;4667;42.726;23.252;2022-12-29T12:39:38;95987.53;;;12.28;nan
9261;BME280;4667;42.726;23.252;2022-12-29T12:42:23;95988.63;;;12.17;nan
9261;BME280;4667;42.726;23.252;2022-12-29T12:45:16;95991.97;;;11.96;nan
9261;BME280;4667;42.726;23.252;2022-12-29T12:47:53;95990.75;;;11.90;nan
9261;BME280;4667;42.726;23.252;2022-12-29T12:50:40;95981.84;;;11.93;nan
9261;BME280;4667;42.726;23.252;2022-12-29T12:53:26;95988.09;;;11.97;nan
9261;BME280;4667;42.726;23.252;2022-12-29T12:56:08;95991.16;;;11.92;nan
9261;BME280;4667;42.726;23.252;2022-12-29T12:58:51;95986.91;;;11.91;nan
9261;BME280;4667;42.726;23.252;2022-12-29T13:01:30;95990.88;;;11.60;nan
9261;BME280;4667;42.726;23.252;2022-12-29T13:04:21;95982.25;;;11.51;nan
9261;BME280;4667;42.726;23.252;2022-12-29T13:07:02;95979.50;;;11.88;nan
9261;BME280;4667;42.726;23.252;2022-12-29T13:09:48;95981.91;;;11.97;nan
9261;BME280;4667;42.726;23.252;2022-12-29T13:12:28;95985.03;;;12.02;nan
9261;BME280;4667;42.726;23.252;2022-12-29T13:15:08;95984.91;;;12.39;nan
9261;BME280;4667;42.726;23.252;2022-12-29T13:17:45;95986.09;;;12.52;nan
9261;BME280;4667;42.726;23.252;2022-12-29T13:20:23;95984.47;;;12.37;nan
9261;BME280;4667;42.726;23.252;2022-12-29T13:22:57;95988.34;;;12.36;nan
9261;BME280;4667;42.726;23.252;2022-12-29T13:25:33;95984.13;;;12.39;nan
9261;BME280;4667;42.726;23.252;2022-12-29T13:28:06;95997.59;;;12.21;nan
9261;BME280;4667;42.726;23.252;2022-12-29T13:30:44;95994.00;;;12.10;nan
9261;BME280;4667;42.726;23.252;2022-12-29T13:33:16;95992.84;;;12.11;nan
9261;BME280;4667;42.726;23.252;2022-12-29T13:36:00;95994.34;;;12.05;nan
9261;BME280;4667;42.726;23.252;2022-12-29T13:38:33;95997.34;;;11.89;nan
9261;BME280;4667;42.726;23.252;2022-12-29T13:41:05;95998.84;;;11.86;nan
9261;BME280;4667;42.726;23.252;2022-12-29T13:43:36;96008.13;;;11.82;nan
9261;BME280;4667;42.726;23.252;2022-12-29T13:46:09;95996.88;;;11.80;nan
9261;BME280;4667;42.726;23.252;2022-12-29T13:48:41;96004.56;;;11.74;nan
9261;BME280;4667;42.726;23.252;2022-12-29T13:51:10;95999.41;;;11.62;nan
9261;BME280;4667;42.726;23.252;2022-12-29T13:53:48;95998.66;;;11.65;nan
9261;BME280;4667;42.726;23.252;2022-12-29T13:56:26;95998.91;;;11.50;nan
9261;BME280;4667;42.726;23.252;2022-12-29T13:59:04;95994.31;;;11.17;nan
9261;BME280;4667;42.726;23.252;2022-12-29T14:01:37;96000.69;;;11.31;nan
9261;BME280;4667;42.726;23.252;2022-12-29T14:04:12;96001.94;;;11.44;nan
9261;BME280;4667;42.726;23.252;2022-12-29T14:06:39;96005.16;;;11.54;nan
9261;BME280;4667;42.726;23.252;2022-12-29T14:09:34;96005.56;;;11.56;nan